Time;durP1;ratioP1;P1;durP2;ratioP2;P2;SDS_P1;SDS_P2;PMS_P1;PMS_P2;Temp;Humidity;BMP_temperature;BMP_pressure;BME280_temperature;BME280_humidity;BME280_pressure;Samples;Min_cycle;Max_cycle;Signal;HPM_P1;HPM_P2
2021/04/11 00:08:48;;;;;;;11.3;8.5;;;;;;;5.42;69.39746;98692.95;;;;
2021/04/11 00:18:46;;;;;;;8;6.5;;;;;;;5.59;68.10449;98684.61;;;;
2021/04/11 00:28:44;;;;;;;12.2;8.2;;;;;;;5.81;67.83691;98676.25;;;;
2021/04/11 00:38:42;;;;;;;9.2;6.3;;;;;;;5.66;66.81836;98671.75;;;;
2021/04/11 00:48:40;;;;;;;14;7.6;;;;;;;5.47;68.50977;98673.44;;;;
2021/04/11 00:58:40;;;;;;;8.4;7.2;;;;;;;5.37;68.67285;98668.92;;;;
2021/04/11 01:08:40;;;;;;;14.3;7.3;;;;;;;5.41;70.66797;98663.84;;;;
2021/04/11 01:18:34;;;;;;;12.1;7.5;;;;;;;5.48;69.38281;98664.36;;;;
2021/04/11 01:28:32;;;;;;;10;7.9;;;;;;;5.17;74.47852;98666.3;;;;
2021/04/11 01:38:30;;;;;;;13.2;11.5;;;;;;;4.82;76.05371;98693.05;;;;
2021/04/11 01:48:28;;;;;;;21.5;13.6;;;;;;;4.55;79.68848;98693.28;;;;
2021/04/11 01:58:26;;;;;;;18.6;12.6;;;;;;;4.45;79.27051;98682.59;;;;
2021/04/11 02:08:24;;;;;;;34;16.3;;;;;;;4.25;77.84473;98669.23;;;;
2021/04/11 02:18:21;;;;;;;19.8;13.7;;;;;;;4.09;82.39941;98678.27;;;;
2021/04/11 02:28:19;;;;;;;24.3;14.8;;;;;;;3.95;81.24414;98676.11;;;;
2021/04/11 02:38:17;;;;;;;21.7;13.1;;;;;;;3.92;81.48047;98670.5;;;;
2021/04/11 02:48:15;;;;;;;19.9;13.5;;;;;;;3.81;80.80566;98663.52;;;;
2021/04/11 02:58:12;;;;;;;14.6;11.9;;;;;;;3.57;81.18164;98673.02;;;;
2021/04/11 03:08:10;;;;;;;18.8;11.1;;;;;;;3.25;82.65039;98679.25;;;;
2021/04/11 03:18:08;;;;;;;15.4;9.7;;;;;;;2.98;89.13281;98671.38;;;;
2021/04/11 03:28:06;;;;;;;16.1;11.8;;;;;;;2.86;90.28809;98678.72;;;;
2021/04/11 03:38:03;;;;;;;14.7;9.5;;;;;;;2.59;90.37305;98655.89;;;;
2021/04/11 03:48:01;;;;;;;12;9.8;;;;;;;2.36;89.66504;98659.7;;;;
2021/04/11 03:57:59;;;;;;;23;11.6;;;;;;;2.16;93.93066;98652.31;;;;
2021/04/11 04:07:56;;;;;;;13.3;6.6;;;;;;;2.21;96.94434;98643.59;;;;
2021/04/11 04:17:54;;;;;;;26.1;13;;;;;;;2.49;94.35449;98638;;;;
2021/04/11 04:27:52;;;;;;;24.1;21.2;;;;;;;2.59;93.01953;98645.25;;;;
2021/04/11 04:37:49;;;;;;;26.4;22.1;;;;;;;2.71;95.22852;98654.65;;;;
2021/04/11 04:47:47;;;;;;;28.2;21.4;;;;;;;2.97;93.59863;98652.98;;;;
2021/04/11 04:57:45;;;;;;;35.1;21.5;;;;;;;3.24;92.56641;98645.68;;;;
2021/04/11 05:07:42;;;;;;;31.5;21.7;;;;;;;3.61;90.99609;98650.13;;;;
2021/04/11 05:17:40;;;;;;;22.2;19.8;;;;;;;4.06;90.14063;98652.94;;;;
2021/04/11 05:27:38;;;;;;;24.5;18.5;;;;;;;4.63;87.97461;98662.59;;;;
2021/04/11 05:37:36;;;;;;;25;13.8;;;;;;;5.1;84.31641;98648.95;;;;
2021/04/11 05:47:35;;;;;;;17;10.2;;;;;;;5.64;82.54102;98639.16;;;;
2021/04/11 05:57:32;;;;;;;11.6;7.8;;;;;;;6.27;80.4082;98640.19;;;;
2021/04/11 06:07:34;;;;;;;12.9;8.9;;;;;;;7.04;81.02051;98636.61;;;;
2021/04/11 06:17:29;;;;;;;13.2;7.6;;;;;;;7.92;78.7207;98633.44;;;;
2021/04/11 06:27:41;;;;;;;9.5;7.2;;;;;;;8.91;72.98535;98623.36;;;;
2021/04/11 06:37:31;;;;;;;10.2;5.4;;;;;;;10.19;63.80859;98617.86;;;;
2021/04/11 06:47:23;;;;;;;6.8;4.6;;;;;;;10.97;58.4209;98614.61;;;;
2021/04/11 06:57:21;;;;;;;6.2;3.7;;;;;;;11.83;54.75586;98612.28;;;;
2021/04/11 07:07:20;;;;;;;12;5.6;;;;;;;12.31;52.87695;98611.38;;;;
2021/04/11 07:17:19;;;;;;;6;2.7;;;;;;;12.84;52.18652;98597.5;;;;
2021/04/11 07:27:18;;;;;;;6;2.9;;;;;;;13.65;49.83301;98606.29;;;;
2021/04/11 07:37:17;;;;;;;9.7;4.2;;;;;;;14.01;48.51074;98614.69;;;;
2021/04/11 07:47:16;;;;;;;5.2;2.4;;;;;;;14.31;46.77441;98590.22;;;;
2021/04/11 07:57:15;;;;;;;6.3;3.6;;;;;;;14.83;45.63477;98596;;;;
2021/04/11 08:07:14;;;;;;;7.4;3.1;;;;;;;15.25;44.7793;98599.38;;;;
2021/04/11 08:17:13;;;;;;;5.5;3.3;;;;;;;15.34;44.46582;98583.8;;;;
2021/04/11 08:27:12;;;;;;;5.2;3;;;;;;;16.01;44.21191;98605.74;;;;
2021/04/11 08:37:12;;;;;;;4.4;2.8;;;;;;;16.26;42.36621;98617.37;;;;
2021/04/11 08:47:11;;;;;;;3.9;1.9;;;;;;;16.53;41.80273;98607.64;;;;
2021/04/11 08:57:10;;;;;;;3.4;1.1;;;;;;;16.8;38.28711;98589.78;;;;
2021/04/11 09:07:10;;;;;;;7.4;1.9;;;;;;;16.5;38.71289;98609.13;;;;
2021/04/11 09:17:09;;;;;;;7.1;1.8;;;;;;;16.71;36.86621;98597.28;;;;
2021/04/11 09:27:08;;;;;;;4.5;0.9;;;;;;;17.32;35.5498;98584.13;;;;
2021/04/11 09:37:08;;;;;;;1.9;0.7;;;;;;;18.23;36.49414;98584.68;;;;
2021/04/11 09:47:07;;;;;;;4.6;1.7;;;;;;;18.51;35.11133;98556.08;;;;
2021/04/11 09:57:07;;;;;;;3.6;1.9;;;;;;;19.01;33.22754;98554.28;;;;
2021/04/11 10:07:07;;;;;;;4.1;1.3;;;;;;;18.85;32.71484;98553.58;;;;
2021/04/11 10:17:06;;;;;;;4.1;1.6;;;;;;;18.55;32.06543;98562.39;;;;
2021/04/11 10:27:06;;;;;;;6.3;1.8;;;;;;;18.03;33.3291;98571.03;;;;
2021/04/11 10:37:06;;;;;;;4;1.3;;;;;;;18.52;34.86621;98565.05;;;;
2021/04/11 10:47:05;;;;;;;3.2;1.1;;;;;;;18.83;33.83203;98580.47;;;;
2021/04/11 10:57:05;;;;;;;2.7;1.1;;;;;;;19.17;32.86719;98573.27;;;;
2021/04/11 11:07:05;;;;;;;6;1.3;;;;;;;18.86;35.0918;98575.08;;;;
2021/04/11 11:17:05;;;;;;;4.1;2.2;;;;;;;19.16;34.33496;98577.94;;;;
2021/04/11 11:27:04;;;;;;;2;0.9;;;;;;;18.72;35.66211;98588.45;;;;
2021/04/11 11:37:04;;;;;;;2.5;0.9;;;;;;;18.96;36.1709;98585.41;;;;
2021/04/11 11:47:05;;;;;;;3;1.1;;;;;;;18.92;36.74902;98578.29;;;;
2021/04/11 11:57:04;;;;;;;6.4;0.9;;;;;;;18.99;35.99902;98587.41;;;;
2021/04/11 12:07:03;;;;;;;1.9;0.6;;;;;;;18.68;38.14844;98590.33;;;;
2021/04/11 12:17:03;;;;;;;3.3;0.9;;;;;;;18.07;38.64258;98582.81;;;;
2021/04/11 12:27:03;;;;;;;2.8;1;;;;;;;18.63;38.83008;98574.25;;;;
2021/04/11 12:37:03;;;;;;;5.6;1.2;;;;;;;17.54;40.6582;98584.28;;;;
2021/04/11 12:47:03;;;;;;;2.2;0.9;;;;;;;17;41.55859;98592.27;;;;
2021/04/11 12:57:02;;;;;;;3.6;1.1;;;;;;;16.79;42.71777;98585.47;;;;
2021/04/11 13:07:02;;;;;;;1.8;1;;;;;;;16.98;43.02539;98597.27;;;;
2021/04/11 13:17:01;;;;;;;2.3;0.8;;;;;;;16.43;43.21387;98605.41;;;;
2021/04/11 13:27:01;;;;;;;2.6;1.2;;;;;;;15.81;44.09863;98614.83;;;;
2021/04/11 13:37:00;;;;;;;4.2;1.6;;;;;;;15.45;45.42188;98610.14;;;;
2021/04/11 13:46:59;;;;;;;3.4;2;;;;;;;15.37;45.56348;98615.7;;;;
2021/04/11 13:56:59;;;;;;;12;3.1;;;;;;;15.4;45.6123;98601.44;;;;
2021/04/11 14:06:58;;;;;;;3.4;1.6;;;;;;;14.93;47.17383;98596.38;;;;
2021/04/11 14:16:57;;;;;;;4.3;1.8;;;;;;;14.65;48.22363;98617.07;;;;
2021/04/11 14:26:56;;;;;;;5.1;2.4;;;;;;;13.99;54.23633;98607.98;;;;
2021/04/11 14:36:56;;;;;;;3.2;1.8;;;;;;;13.63;58.31836;98611.25;;;;
2021/04/11 14:46:55;;;;;;;11.3;8.7;;;;;;;13.52;60.70215;98610.82;;;;
2021/04/11 14:56:54;;;;;;;7.2;3.8;;;;;;;13.58;62.99219;98616.84;;;;
2021/04/11 15:06:53;;;;;;;7;4.3;;;;;;;13.54;62.75879;98618.6;;;;
2021/04/11 15:16:52;;;;;;;6.6;3.6;;;;;;;13.27;61.65918;98621.74;;;;
2021/04/11 15:26:51;;;;;;;8.7;3.8;;;;;;;12.77;66.74512;98624.23;;;;
2021/04/11 15:36:50;;;;;;;8;4.6;;;;;;;12.43;72.15723;98638.55;;;;
2021/04/11 15:46:49;;;;;;;7.5;3.5;;;;;;;12.27;75.63281;98653.66;;;;
2021/04/11 15:56:48;;;;;;;5.9;3.6;;;;;;;12.04;81.33301;98648.37;;;;
2021/04/11 16:06:46;;;;;;;21;15.6;;;;;;;11.76;84.63379;98643.55;;;;
2021/04/11 16:16:45;;;;;;;11.1;6.3;;;;;;;11.61;84.13086;98650.14;;;;
2021/04/11 16:26:44;;;;;;;7.8;4.4;;;;;;;11.74;78.12109;98651.16;;;;
2021/04/11 16:36:43;;;;;;;9.2;6;;;;;;;11.48;79.92773;98653.75;;;;
2021/04/11 16:46:42;;;;;;;13.7;8.4;;;;;;;11.18;99.22266;98654.53;;;;
2021/04/11 16:56:41;;;;;;;19;13.5;;;;;;;11.07;100;98643.23;;;;
2021/04/11 17:06:40;;;;;;;15.7;11.7;;;;;;;10.89;100;98636.94;;;;
2021/04/11 17:16:43;;;;;;;22.8;15.9;;;;;;;10.86;100;98634.86;;;;
2021/04/11 17:26:37;;;;;;;27.6;20.4;;;;;;;10.91;100;98633.92;;;;
2021/04/11 17:36:37;;;;;;;20.3;17.8;;;;;;;10.95;100;98654.58;;;;
2021/04/11 17:46:39;;;;;;;21.1;15.6;;;;;;;10.78;100;98667.95;;;;
2021/04/11 17:56:35;;;;;;;21.3;19;;;;;;;10.65;100;98679.59;;;;
2021/04/11 18:06:39;;;;;;;19.3;17.3;;;;;;;10.32;100;98672.78;;;;
2021/04/11 18:16:36;;;;;;;45.2;36.1;;;;;;;10.44;100;98686.54;;;;
2021/04/11 18:26:33;;;;;;;23.4;16.8;;;;;;;10.51;100;98686.92;;;;
2021/04/11 18:36:38;;;;;;;15.1;11;;;;;;;10.52;100;98688.49;;;;
2021/04/11 18:46:36;;;;;;;14.7;10.9;;;;;;;10.46;100;98685.13;;;;
2021/04/11 18:57:00;;;;;;;11.6;8.2;;;;;;;10.38;100;98695.81;;;;
2021/04/11 19:06:24;;;;;;;12.5;10.2;;;;;;;10.32;100;98700.53;;;;
2021/04/11 19:16:23;;;;;;;10.9;7.6;;;;;;;10.2;100;98694.88;;;;
2021/04/11 19:26:22;;;;;;;12.2;8.4;;;;;;;10.24;100;98692.38;;;;
2021/04/11 19:36:20;;;;;;;11.1;6.1;;;;;;;10.22;100;98699.95;;;;
2021/04/11 19:46:19;;;;;;;14.2;12.7;;;;;;;10.29;100;98690.36;;;;
2021/04/11 19:56:17;;;;;;;9.4;5.9;;;;;;;10.36;98.5;98692.64;;;;
2021/04/11 20:06:16;;;;;;;11.6;7.6;;;;;;;10.42;97.58301;98692.22;;;;
2021/04/11 20:16:14;;;;;;;7.1;4.7;;;;;;;10.42;96.95508;98686.03;;;;
2021/04/11 20:26:13;;;;;;;8;6.3;;;;;;;10.44;96.6123;98675.77;;;;
2021/04/11 20:36:12;;;;;;;8.4;5.1;;;;;;;10.35;97.1748;98680.26;;;;
2021/04/11 20:46:13;;;;;;;6.3;3.6;;;;;;;10.47;93.81543;98656.29;;;;
2021/04/11 20:56:09;;;;;;;5.3;3.3;;;;;;;10.5;91.87891;98647.59;;;;
2021/04/11 21:06:07;;;;;;;7.9;4.7;;;;;;;10.49;90.83203;98632.52;;;;
2021/04/11 21:16:06;;;;;;;6.9;4.7;;;;;;;10.58;88.64844;98642.28;;;;
2021/04/11 21:26:04;;;;;;;5.5;3.9;;;;;;;10.55;88.77734;98632.09;;;;
2021/04/11 21:36:03;;;;;;;6.8;4;;;;;;;10.39;90.75586;98616.59;;;;
2021/04/11 21:46:01;;;;;;;7.6;5.1;;;;;;;9.97;92.19434;98621.27;;;;
2021/04/11 21:56:00;;;;;;;9.4;5.2;;;;;;;9.6;92.35254;98614.25;;;;
2021/04/11 22:05:58;;;;;;;8.2;4.8;;;;;;;9.57;92.7041;98624.81;;;;
2021/04/11 22:15:57;;;;;;;10.1;6.4;;;;;;;9.38;93.74805;98629.48;;;;
2021/04/11 22:25:55;;;;;;;14.6;8.1;;;;;;;9.2;95.00781;98630.38;;;;
2021/04/11 22:35:54;;;;;;;7.3;6.1;;;;;;;9.21;95.04492;98635.45;;;;
2021/04/11 22:45:53;;;;;;;10.9;7.2;;;;;;;9.23;94.70215;98622.52;;;;
2021/04/11 22:55:51;;;;;;;7.3;4.8;;;;;;;9.24;94.49121;98628.67;;;;
2021/04/11 23:05:52;;;;;;;7.6;4.9;;;;;;;9.23;93.95215;98622.52;;;;
2021/04/11 23:15:48;;;;;;;7.7;5.1;;;;;;;9.01;94.62207;98612.42;;;;
2021/04/11 23:25:46;;;;;;;11.7;6.6;;;;;;;8.8;95.11035;98594.26;;;;
2021/04/11 23:35:45;;;;;;;11.9;7.2;;;;;;;8.56;96.06445;98595.2;;;;
2021/04/11 23:45:48;;;;;;;8.1;6;;;;;;;8.35;96.45215;98577.02;;;;
2021/04/11 23:55:41;;;;;;;9.7;6.9;;;;;;;8.05;96.7793;98576.34;;;;
